createdAt,value
2022-08-07T00:02:58.171Z,88.14
2022-08-07T00:05:55.373Z,88.89
2022-08-07T00:08:52.597Z,88.90
2022-08-07T00:11:55.459Z,87.77
2022-08-07T00:14:53.934Z,88.02
2022-08-07T00:17:51.621Z,88.54
2022-08-07T00:20:49.802Z,87.10
2022-08-07T00:23:46.777Z,86.35
2022-08-07T00:26:58.896Z,88.09
2022-08-07T00:30:05.674Z,89.50
2022-08-07T00:33:18.457Z,88.50
2022-08-07T00:36:17.446Z,88.16
2022-08-07T00:39:16.511Z,84.12
2022-08-07T00:42:14.341Z,84.65
2022-08-07T00:45:16.375Z,83.09
2022-08-07T00:48:13.470Z,80.21
2022-08-07T00:51:10.353Z,80.70
2022-08-07T00:54:07.749Z,85.47
2022-08-07T00:57:10.553Z,85.70
2022-08-07T01:00:10.090Z,83.85
2022-08-07T01:03:08.425Z,81.76
2022-08-07T01:06:09.803Z,82.04
2022-08-07T01:09:09.231Z,85.79
2022-08-07T01:12:29.648Z,86.99
2022-08-07T01:15:35.879Z,87.61
2022-08-07T01:18:42.611Z,87.16
2022-08-07T01:21:39.670Z,87.26
2022-08-07T01:24:37.629Z,86.62
2022-08-07T01:27:35.599Z,87.93
2022-08-07T01:30:33.575Z,88.87
2022-08-07T01:33:54.979Z,87.20
2022-08-07T01:36:52.440Z,86.27
2022-08-07T01:40:00.867Z,88.60
2022-08-07T01:43:00.374Z,90.45
2022-08-07T01:46:02.378Z,91.07
2022-08-07T01:49:00.278Z,92.13
2022-08-07T01:52:03.211Z,90.06
2022-08-07T01:55:02.037Z,89.08
2022-08-07T01:58:28.970Z,90.39
2022-08-07T02:02:01.980Z,89.45
2022-08-07T02:04:57.489Z,91.59
2022-08-07T02:07:58.844Z,91.27
2022-08-07T02:11:03.280Z,90.32
2022-08-07T02:14:02.823Z,90.88
2022-08-07T02:17:03.152Z,91.41
2022-08-07T02:20:06.993Z,93.13
2022-08-07T02:23:07.736Z,92.30
2022-08-07T02:26:30.698Z,89.77
2022-08-07T02:29:22.583Z,90.56
2022-08-07T02:32:23.456Z,91.11
2022-08-07T02:36:28.752Z,91.16
2022-08-07T02:38:50.602Z,90.99
2022-08-07T02:41:55.142Z,92.39
2022-08-07T02:44:54.988Z,92.05
2022-08-07T02:47:56.699Z,90.19
2022-08-07T02:51:01.223Z,91.91
2022-08-07T02:54:01.035Z,92.10
2022-08-07T02:57:00.515Z,91.61
2022-08-07T03:00:01.272Z,91.24
2022-08-07T03:03:06.030Z,91.96
2022-08-07T03:06:05.895Z,90.50
2022-08-07T03:09:14.413Z,91.37
2022-08-07T03:12:21.706Z,92.63
2022-08-07T03:15:30.251Z,90.98
2022-08-07T03:18:39.690Z,91.74
2022-08-07T03:21:41.760Z,93.02
2022-08-07T03:24:47.751Z,93.55
2022-08-07T03:28:08.770Z,92.25
2022-08-07T03:31:24.569Z,92.72
2022-08-07T03:34:27.156Z,92.22
2022-08-07T03:37:32.631Z,91.00
2022-08-07T03:40:36.169Z,91.75
2022-08-07T03:43:38.676Z,91.60
2022-08-07T03:47:14.105Z,92.04
2022-08-07T03:50:00.877Z,91.70
2022-08-07T03:53:03.533Z,93.29
2022-08-07T03:56:04.076Z,93.29
2022-08-07T03:59:10.014Z,93.57
2022-08-07T04:02:12.868Z,93.40
2022-08-07T04:05:12.015Z,93.83
2022-08-07T04:08:11.881Z,93.42
2022-08-07T04:12:24.481Z,92.71
2022-08-07T04:14:38.187Z,94.64
2022-08-07T04:18:56.894Z,94.50
2022-08-07T04:20:55.142Z,93.93
2022-08-07T04:24:05.723Z,93.76
2022-08-07T04:27:05.778Z,93.20
2022-08-07T04:30:21.709Z,93.83
2022-08-07T04:33:35.338Z,92.87
2022-08-07T04:36:34.441Z,93.55
2022-08-07T04:39:35.948Z,93.87
2022-08-07T04:42:34.788Z,93.98
2022-08-07T04:46:01.641Z,94.70
2022-08-07T04:49:25.509Z,96.50
2022-08-07T04:52:51.426Z,95.95
2022-08-07T04:58:11.332Z,95.06
2022-08-07T05:00:12.344Z,95.75
2022-08-07T05:02:53.189Z,96.51
2022-08-07T05:05:58.227Z,95.73
2022-08-07T05:09:09.712Z,95.44
2022-08-07T05:12:15.514Z,94.94
2022-08-07T05:15:27.316Z,93.61
2022-08-07T05:18:32.125Z,89.68
2022-08-07T05:22:00.677Z,86.82
2022-08-07T05:24:48.749Z,84.78
2022-08-07T05:28:03.239Z,83.73
2022-08-07T05:31:05.075Z,82.75
2022-08-07T05:34:05.704Z,83.19
2022-08-07T05:37:08.610Z,83.63
2022-08-07T05:40:18.782Z,83.38
2022-08-07T05:43:18.569Z,83.90
2022-08-07T05:46:17.217Z,85.35
2022-08-07T05:49:15.645Z,86.41
2022-08-07T05:52:20.158Z,86.07
2022-08-07T05:55:18.699Z,85.25
2022-08-07T05:58:16.714Z,86.54
2022-08-07T06:01:15.144Z,86.88
2022-08-07T06:04:15.282Z,86.19
2022-08-07T06:07:22.778Z,84.80
2022-08-07T06:10:21.765Z,83.97
2022-08-07T06:14:11.988Z,83.61
2022-08-07T06:16:38.849Z,83.48
2022-08-07T06:19:57.655Z,83.02
2022-08-07T06:23:25.216Z,82.15
2022-08-07T06:26:14.808Z,82.05
2022-08-07T06:29:12.592Z,83.08
2022-08-07T06:32:10.030Z,86.22
2022-08-07T06:35:17.719Z,86.89
2022-08-07T06:38:20.483Z,87.71
2022-08-07T06:42:00.504Z,88.56
2022-08-07T06:45:21.257Z,89.78
2022-08-07T06:48:25.431Z,87.82
2022-08-07T06:51:33.579Z,85.36
2022-08-07T06:55:33.829Z,85.18
2022-08-07T06:57:59.287Z,83.23
2022-08-07T07:00:59.686Z,82.45
2022-08-07T07:04:07.019Z,82.76
2022-08-07T07:07:19.366Z,82.10
2022-08-07T07:10:35.384Z,80.72
2022-08-07T07:13:58.440Z,81.51
2022-08-07T07:16:59.318Z,82.15
2022-08-07T07:19:59.169Z,80.63
2022-08-07T07:24:05.991Z,80.54
2022-08-07T07:26:35.622Z,79.28
2022-08-07T07:29:55.815Z,78.95
2022-08-07T07:32:54.754Z,78.81
2022-08-07T07:36:04.430Z,79.27
2022-08-07T07:39:03.192Z,80.79
2022-08-07T07:42:13.037Z,78.23
2022-08-07T07:45:11.195Z,77.75
2022-08-07T07:48:35.136Z,77.26
2022-08-07T07:51:32.141Z,77.43
2022-08-07T07:54:50.855Z,76.60
2022-08-07T07:57:53.770Z,76.69
2022-08-07T08:00:55.035Z,75.52
2022-08-07T08:04:05.820Z,74.06
2022-08-07T08:07:07.743Z,74.84
2022-08-07T08:10:05.873Z,74.44
2022-08-07T08:13:03.006Z,74.28
2022-08-07T08:16:01.932Z,73.77
2022-08-07T08:19:00.442Z,73.91
2022-08-07T08:22:32.652Z,72.49
2022-08-07T08:25:50.930Z,71.93
2022-08-07T08:28:48.027Z,72.04
2022-08-07T08:31:59.296Z,72.05
2022-08-07T08:35:12.619Z,71.56
2022-08-07T08:38:13.998Z,69.65
2022-08-07T08:41:31.445Z,69.99
2022-08-07T08:45:06.051Z,67.98
2022-08-07T08:48:32.445Z,68.52
2022-08-07T08:52:14.208Z,67.66
2022-08-07T08:55:55.143Z,68.41
2022-08-07T08:59:48.590Z,66.15
2022-08-07T09:02:56.029Z,65.76
2022-08-07T09:05:58.978Z,65.23
2022-08-07T09:09:09.704Z,65.41
2022-08-07T09:12:31.572Z,65.65
2022-08-07T09:16:24.186Z,62.81
2022-08-07T09:19:51.753Z,62.89
2022-08-07T09:24:30.994Z,62.25
2022-08-07T09:25:59.029Z,62.40
2022-08-07T09:30:01.427Z,63.03
2022-08-07T09:32:29.141Z,63.68
2022-08-07T09:36:03.839Z,59.63
2022-08-07T09:39:54.303Z,58.40
2022-08-07T09:42:58.672Z,59.17
2022-08-07T09:47:55.261Z,59.60
2022-08-07T09:50:19.189Z,56.53
2022-08-07T09:53:18.417Z,57.27
2022-08-07T09:56:37.436Z,57.86
2022-08-07T09:59:44.740Z,57.37
2022-08-07T10:03:07.872Z,55.16
2022-08-07T10:06:24.548Z,54.22
2022-08-07T10:10:00.683Z,52.34
2022-08-07T10:13:55.236Z,54.03
2022-08-07T10:17:14.065Z,54.03
2022-08-07T10:20:30.730Z,54.54
2022-08-07T10:24:08.580Z,52.58
2022-08-07T10:27:46.987Z,52.94
2022-08-07T10:31:11.155Z,52.79
2022-08-07T10:34:36.237Z,50.79
2022-08-07T10:38:09.499Z,51.93
2022-08-07T10:41:46.588Z,52.95
2022-08-07T10:44:59.788Z,54.29
2022-08-07T10:48:24.917Z,52.91
2022-08-07T10:51:57.770Z,53.29
2022-08-07T10:55:27.142Z,53.77
2022-08-07T10:58:59.616Z,53.37
2022-08-07T11:02:05.006Z,53.43
2022-08-07T11:05:35.677Z,52.57
2022-08-07T11:08:52.927Z,52.28
2022-08-07T11:12:01.441Z,53.22
2022-08-07T11:15:03.272Z,51.34
2022-08-07T11:18:25.377Z,51.25
2022-08-07T11:21:43.102Z,53.48
2022-08-07T11:24:45.987Z,52.47
2022-08-07T11:28:03.222Z,53.54
2022-08-07T11:31:22.082Z,52.91
2022-08-07T11:34:24.874Z,51.72
2022-08-07T11:38:08.889Z,52.00
2022-08-07T11:41:08.280Z,51.42
2022-08-07T11:44:38.991Z,51.49
2022-08-07T11:47:59.167Z,51.74
2022-08-07T11:51:41.172Z,51.96
2022-08-07T11:55:02.773Z,51.61
2022-08-07T11:58:36.172Z,50.79
2022-08-07T12:01:59.679Z,50.73
2022-08-07T12:05:15.660Z,51.75
2022-08-07T12:08:44.334Z,51.11
2022-08-07T12:12:10.205Z,50.82
2022-08-07T12:16:05.079Z,51.20
2022-08-07T12:18:56.321Z,50.32
2022-08-07T12:22:37.790Z,50.37
2022-08-07T12:26:05.447Z,51.31
2022-08-07T12:29:37.627Z,49.89
2022-08-07T12:32:45.264Z,49.76
2022-08-07T12:35:57.811Z,48.76
2022-08-07T12:38:57.268Z,49.79
2022-08-07T12:41:54.931Z,47.99
2022-08-07T12:44:52.029Z,46.53
2022-08-07T12:47:57.820Z,48.03
2022-08-07T12:51:17.598Z,49.30
2022-08-07T12:54:37.820Z,48.51
2022-08-07T12:57:39.088Z,48.25
2022-08-07T13:01:00.367Z,48.80
2022-08-07T13:04:32.615Z,47.63
2022-08-07T13:08:22.648Z,47.75
2022-08-07T13:12:02.443Z,48.92
2022-08-07T13:15:37.216Z,48.32
2022-08-07T13:18:38.804Z,50.09
2022-08-07T13:21:57.288Z,47.04
2022-08-07T13:25:09.494Z,50.34
2022-08-07T13:28:18.282Z,47.40
2022-08-07T13:32:00.187Z,45.84
2022-08-07T13:36:00.246Z,46.84
2022-08-07T13:39:13.171Z,45.88
2022-08-07T13:42:24.809Z,46.26
2022-08-07T13:46:11.712Z,46.60
2022-08-07T13:48:51.892Z,48.47
2022-08-07T13:52:04.851Z,45.23
2022-08-07T13:55:26.268Z,47.20
2022-08-07T13:58:56.633Z,45.61
2022-08-07T14:02:03.713Z,46.29
2022-08-07T14:05:12.093Z,47.51
2022-08-07T14:08:09.333Z,46.76
2022-08-07T14:11:17.513Z,46.77
2022-08-07T14:14:16.612Z,47.94
2022-08-07T14:18:15.506Z,47.26
2022-08-07T14:20:41.051Z,45.42
2022-08-07T14:24:00.304Z,46.65
2022-08-07T14:27:00.169Z,44.95
2022-08-07T14:30:07.504Z,46.44
2022-08-07T14:33:08.183Z,43.82
2022-08-07T14:36:08.786Z,45.67
2022-08-07T14:39:06.541Z,45.10
2022-08-07T14:42:18.610Z,45.86
2022-08-07T14:45:21.170Z,46.18
2022-08-07T14:48:37.110Z,46.07
2022-08-07T14:52:02.833Z,45.59
2022-08-07T14:54:54.238Z,45.53
2022-08-07T14:57:54.886Z,46.37
2022-08-07T15:00:55.933Z,45.46
2022-08-07T15:04:05.344Z,45.27
2022-08-07T15:07:03.413Z,43.44
2022-08-07T15:10:26.267Z,44.74
2022-08-07T15:13:25.526Z,43.27
2022-08-07T15:16:55.042Z,45.60
2022-08-07T15:20:33.723Z,44.46
2022-08-07T15:25:04.026Z,44.22
2022-08-07T15:26:44.981Z,44.98
2022-08-07T15:33:03.959Z,44.33
2022-08-07T15:36:05.257Z,44.84
2022-08-07T15:39:04.843Z,44.27
2022-08-07T15:42:43.486Z,45.17
2022-08-07T15:49:03.805Z,44.07
2022-08-07T15:52:06.899Z,44.47
2022-08-07T15:55:11.423Z,42.17
2022-08-07T15:58:19.291Z,43.06
2022-08-07T16:01:38.984Z,42.72
2022-08-07T16:04:37.364Z,43.75
2022-08-07T16:08:30.620Z,44.26
2022-08-07T16:11:04.748Z,41.19
2022-08-07T16:14:37.761Z,42.89
2022-08-07T16:18:02.732Z,43.08
2022-08-07T16:22:01.488Z,42.46
2022-08-07T16:24:57.026Z,44.09
2022-08-07T16:28:11.465Z,41.98
2022-08-07T16:31:51.312Z,42.68
2022-08-07T16:35:56.337Z,42.71
2022-08-07T16:39:01.004Z,42.27
2022-08-07T16:42:15.627Z,42.71
2022-08-07T16:46:33.514Z,42.79
2022-08-07T16:50:28.885Z,43.21
2022-08-07T16:53:14.801Z,43.68
2022-08-07T16:56:44.848Z,42.02
2022-08-07T17:00:15.086Z,43.18
2022-08-07T17:03:17.250Z,42.88
2022-08-07T17:06:31.398Z,44.46
2022-08-07T17:10:06.764Z,44.06
2022-08-07T17:13:20.337Z,43.34
2022-08-07T17:16:29.323Z,42.27
2022-08-07T17:20:02.310Z,43.15
2022-08-07T17:23:01.605Z,45.13
2022-08-07T17:26:23.928Z,42.94
2022-08-07T17:30:15.641Z,45.58
2022-08-07T17:33:00.736Z,43.55
2022-08-07T17:36:20.280Z,42.58
2022-08-07T17:39:22.227Z,41.83
2022-08-07T17:42:59.342Z,42.33
2022-08-07T17:46:09.247Z,44.81
2022-08-07T17:49:44.816Z,43.83
2022-08-07T17:52:59.074Z,44.15
2022-08-07T17:56:06.429Z,45.17
2022-08-07T17:59:35.781Z,45.28
2022-08-07T18:02:40.100Z,47.67
2022-08-07T18:06:16.814Z,47.50
2022-08-07T18:10:04.779Z,51.09
2022-08-07T18:13:01.474Z,54.51
2022-08-07T18:16:10.127Z,54.99
2022-08-07T18:21:11.945Z,57.91
2022-08-07T18:23:02.355Z,58.27
2022-08-07T18:26:05.417Z,61.94
2022-08-07T18:30:08.389Z,59.82
2022-08-07T18:32:54.044Z,61.83
2022-08-07T18:36:14.073Z,59.74
2022-08-07T18:40:06.916Z,61.63
2022-08-07T18:42:57.435Z,60.68
2022-08-07T18:46:25.006Z,61.42
2022-08-07T18:50:32.401Z,59.47
2022-08-07T18:52:53.777Z,60.40
2022-08-07T18:56:30.809Z,60.53
2022-08-07T18:59:58.520Z,60.88
2022-08-07T19:03:12.303Z,60.39
2022-08-07T19:06:33.722Z,61.71
2022-08-07T19:09:57.510Z,62.05
2022-08-07T19:13:11.705Z,60.77
2022-08-07T19:17:06.088Z,62.25
2022-08-07T19:20:03.866Z,62.30
2022-08-07T19:23:18.454Z,63.85
2022-08-07T19:26:24.369Z,64.48
2022-08-07T19:31:01.229Z,64.96
2022-08-07T19:32:46.181Z,62.33
2022-08-07T19:35:44.972Z,64.55
2022-08-07T19:38:53.007Z,64.55
2022-08-07T19:42:05.852Z,64.37
2022-08-07T19:45:08.698Z,64.11
2022-08-07T19:48:06.623Z,63.67
2022-08-07T19:51:19.911Z,64.68
2022-08-07T19:54:29.817Z,65.19
2022-08-07T19:58:02.107Z,62.82
2022-08-07T20:00:56.371Z,64.13
2022-08-07T20:03:53.821Z,63.27
2022-08-07T20:06:52.775Z,64.23
2022-08-07T20:10:37.865Z,64.50
2022-08-07T20:13:23.441Z,65.50
2022-08-07T20:16:35.890Z,65.24
2022-08-07T20:19:49.665Z,65.88
2022-08-07T20:22:51.055Z,66.74
2022-08-07T20:25:50.898Z,66.26
2022-08-07T20:28:51.342Z,66.41
2022-08-07T20:31:48.632Z,67.13
2022-08-07T20:34:51.147Z,64.48
2022-08-07T20:37:58.271Z,65.81
2022-08-07T20:41:03.961Z,63.05
2022-08-07T20:44:02.591Z,64.27
2022-08-07T20:47:05.923Z,64.85
2022-08-07T20:50:07.262Z,66.15
2022-08-07T20:53:05.623Z,67.45
2022-08-07T20:56:03.175Z,67.23
2022-08-07T20:59:02.917Z,68.47
2022-08-07T21:02:04.406Z,68.34
2022-08-07T21:05:18.406Z,68.63
2022-08-07T21:08:41.164Z,70.36
2022-08-07T21:11:46.321Z,70.63
2022-08-07T21:14:53.606Z,70.34
2022-08-07T21:18:09.629Z,69.94
2022-08-07T21:21:08.777Z,71.42
2022-08-07T21:24:10.204Z,71.28
2022-08-07T21:27:26.725Z,71.35
2022-08-07T21:31:10.455Z,72.84
2022-08-07T21:34:13.302Z,72.60
2022-08-07T21:37:22.653Z,73.15
2022-08-07T21:40:29.051Z,73.79
2022-08-07T21:43:55.498Z,75.16
2022-08-07T21:46:57.865Z,75.41
2022-08-07T21:50:01.813Z,75.96
2022-08-07T21:53:13.053Z,76.17
2022-08-07T21:56:36.242Z,77.02
2022-08-07T22:00:05.225Z,77.99
2022-08-07T22:03:30.929Z,77.99
2022-08-07T22:06:31.511Z,77.93
2022-08-07T22:09:37.971Z,77.39
2022-08-07T22:12:52.065Z,77.09
2022-08-07T22:16:42.993Z,75.22
2022-08-07T22:19:29.898Z,74.04
2022-08-07T22:22:36.734Z,72.06
2022-08-07T22:25:53.803Z,72.13
2022-08-07T22:29:08.985Z,74.95
2022-08-07T22:33:01.450Z,77.39
2022-08-07T22:36:00.978Z,78.80
2022-08-07T22:39:29.800Z,79.10
2022-08-07T22:42:33.809Z,79.18
2022-08-07T22:46:43.056Z,77.40
2022-08-07T22:49:23.323Z,77.25
2022-08-07T22:52:37.702Z,78.47
2022-08-07T22:55:48.479Z,80.46
2022-08-07T22:59:02.388Z,81.25
2022-08-07T23:02:27.505Z,81.41
2022-08-07T23:06:07.182Z,82.28
2022-08-07T23:10:05.005Z,82.59
2022-08-07T23:12:48.756Z,81.83
2022-08-07T23:16:43.308Z,80.46
2022-08-07T23:20:40.548Z,80.45
2022-08-07T23:24:11.831Z,82.92
2022-08-07T23:27:35.468Z,84.63
2022-08-07T23:31:18.776Z,82.72
2022-08-07T23:34:39.962Z,81.47
2022-08-07T23:38:19.271Z,82.16
2022-08-07T23:42:04.418Z,83.44
2022-08-07T23:45:15.043Z,83.31
2022-08-07T23:49:02.276Z,84.55
2022-08-07T23:53:01.141Z,84.27
2022-08-07T23:55:52.025Z,84.48
